Time;durP1;ratioP1;P1;durP2;ratioP2;P2;SDS_P1;SDS_P2;PMS_P1;PMS_P2;Temp;Humidity;BMP_temperature;BMP_pressure;BME280_temperature;BME280_humidity;BME280_pressure;Samples;Min_cycle;Max_cycle;Signal;HPM_P1;HPM_P2
2021/12/21 00:00:29;;;;;;;11.98;6.80;;;6.10;99.90;;;;;;4973744;28;20084;-74
2021/12/21 00:02:54;;;;;;;11.38;6.65;;;6.10;99.90;;;;;;4973742;28;20027;-73
2021/12/21 00:05:27;;;;;;;13.88;6.47;;;6.10;99.90;;;;;;4973375;28;20034;-74
2021/12/21 00:07:54;;;;;;;10.63;7.10;;;6.10;99.90;;;;;;4973126;28;20062;-73
2021/12/21 00:10:22;;;;;;;11.82;6.85;;;6.00;99.90;;;;;;4972623;28;20034;-74
2021/12/21 00:13:01;;;;;;;11.73;6.78;;;6.00;99.90;;;;;;4972165;28;20031;-73
2021/12/21 00:21:06;;;;;;;9.63;6.28;;;6.00;99.90;;;;;;4974867;28;20042;-74
2021/12/21 00:23:34;;;;;;;;;;;6.00;99.90;;;;;;4973545;28;20019;-74
2021/12/21 00:26:04;;;;;;;9.57;6.15;;;6.00;99.90;;;;;;4972368;28;19913;-74
2021/12/21 00:28:35;;;;;;;8.98;5.95;;;6.10;99.90;;;;;;4973453;28;20023;-74
2021/12/21 00:31:00;;;;;;;8.70;5.50;;;6.10;99.90;;;;;;4972339;28;20045;-76
2021/12/21 00:33:26;;;;;;;7.43;4.93;;;6.10;99.90;;;;;;4974498;28;20575;-74
2021/12/21 00:35:52;;;;;;;6.93;4.00;;;6.20;99.90;;;;;;4976866;28;20460;-74
2021/12/21 00:38:18;;;;;;;6.13;4.18;;;6.20;99.90;;;;;;4976811;28;20038;-74
2021/12/21 00:40:43;;;;;;;6.82;4.85;;;6.30;99.90;;;;;;4977124;28;20027;-74
2021/12/21 00:43:09;;;;;;;5.95;3.90;;;6.30;99.90;;;;;;4976847;28;20059;-74
2021/12/21 00:45:34;;;;;;;8.57;4.78;;;6.40;99.90;;;;;;4977068;28;20022;-74
2021/12/21 00:48:00;;;;;;;8.05;4.28;;;6.50;99.90;;;;;;4977491;28;20502;-75
2021/12/21 00:50:26;;;;;;;8.25;4.68;;;6.50;99.90;;;;;;4976875;28;20027;-74
2021/12/21 00:52:53;;;;;;;7.63;4.85;;;6.50;99.90;;;;;;4995964;28;20030;-74
2021/12/21 00:55:21;;;;;;;9.02;4.55;;;6.60;99.90;;;;;;4994593;28;20026;-76
2021/12/21 00:57:47;;;;;;;7.25;4.60;;;6.60;99.90;;;;;;4995860;28;20107;-74
2021/12/21 01:00:16;;;;;;;8.48;4.90;;;6.70;99.90;;;;;;4996052;28;20022;-75
2021/12/21 01:02:42;;;;;;;7.07;4.47;;;6.70;99.90;;;;;;4996168;28;20581;-74
2021/12/21 01:05:21;;;;;;;7.57;4.97;;;6.70;99.90;;;;;;4994153;28;20138;-76
2021/12/21 01:07:50;;;;;;;5.53;4.40;;;6.70;99.90;;;;;;4996190;28;20038;-73
2021/12/21 01:10:49;;;;;;;7.93;4.53;;;6.80;99.90;;;;;;4996096;28;20076;-73
2021/12/21 01:19:00;;;;;;;8.90;6.25;;;6.60;99.90;;;;;;4976287;28;20038;-73
2021/12/21 01:21:21;;;;;;;10.70;6.13;;;6.50;99.90;;;;;;4976403;28;20023;-74
2021/12/21 01:24:40;;;;;;;10.82;6.68;;;6.50;99.90;;;;;;4976460;28;20090;-72
2021/12/21 01:29:47;;;;;;;11.43;6.55;;;6.40;99.90;;;;;;4976392;28;20563;-72
2021/12/21 01:35:04;;;;;;;11.38;7.15;;;6.30;99.90;;;;;;4975909;28;20027;-74
2021/12/21 01:37:47;;;;;;;10.23;7.18;;;6.30;99.90;;;;;;4976051;28;20050;-73
2021/12/21 01:40:30;;;;;;;12.60;7.35;;;6.30;99.90;;;;;;4976242;28;20022;-73
2021/12/21 01:50:59;;;;;;;11.48;7.60;;;6.20;99.90;;;;;;4995510;28;20501;-75
2021/12/21 01:53:25;;;;;;;14.00;7.55;;;6.10;99.90;;;;;;4995558;28;20116;-73
2021/12/21 01:55:51;;;;;;;12.43;7.90;;;6.10;99.90;;;;;;4990196;28;20491;-73
2021/12/21 01:58:17;;;;;;;12.73;7.53;;;6.10;99.90;;;;;;4975550;28;20050;-73
2021/12/21 02:00:43;;;;;;;11.95;8.05;;;6.00;99.90;;;;;;4975395;28;20030;-73
2021/12/21 02:03:09;;;;;;;16.42;8.07;;;5.90;99.90;;;;;;4979810;28;20050;-72
2021/12/21 02:05:36;;;;;;;13.43;8.77;;;5.90;99.90;;;;;;4977670;28;20042;-72
2021/12/21 02:08:02;;;;;;;13.50;8.88;;;5.80;99.90;;;;;;4981274;28;20038;-73
2021/12/21 02:10:29;;;;;;;20.35;8.50;;;5.80;99.90;;;;;;4981650;28;20102;-72
2021/12/21 02:12:55;;;;;;;19.33;9.40;;;5.80;99.90;;;;;;4978573;28;20448;-72
2021/12/21 02:15:23;;;;;;;15.40;9.07;;;5.80;99.90;;;;;;4975041;28;20097;-72
2021/12/21 02:18:39;;;;;;;12.32;7.68;;;5.70;99.90;;;;;;4977588;28;20027;-73
2021/12/21 02:23:37;;;;;;;14.45;8.32;;;5.70;99.90;;;;;;4978204;28;20023;-73
2021/12/21 02:26:21;;;;;;;17.17;8.50;;;5.70;99.90;;;;;;4983350;28;20042;-72
2021/12/21 02:29:08;;;;;;;15.57;8.30;;;5.70;99.90;;;;;;4997356;28;20497;-72
2021/12/21 02:31:32;;;;;;;14.70;7.90;;;5.70;99.90;;;;;;4997831;28;20050;-72
2021/12/21 02:33:58;;;;;;;17.45;7.88;;;5.70;99.90;;;;;;4997004;28;20034;-72
2021/12/21 02:36:24;;;;;;;12.85;7.85;;;5.70;99.90;;;;;;4997079;28;20029;-73
2021/12/21 02:38:50;;;;;;;13.35;8.25;;;5.80;99.90;;;;;;4997540;28;20038;-73
2021/12/21 02:41:16;;;;;;;12.25;7.18;;;5.80;99.90;;;;;;4995397;28;20034;-73
2021/12/21 02:43:41;;;;;;;14.32;8.15;;;5.80;99.90;;;;;;4994320;28;20030;-72
2021/12/21 02:46:07;;;;;;;14.05;7.82;;;5.80;99.90;;;;;;4994200;28;20066;-72
2021/12/21 02:48:33;;;;;;;17.67;8.10;;;5.80;99.90;;;;;;4994149;28;20030;-72
2021/12/21 02:51:00;;;;;;;11.48;7.45;;;5.80;99.90;;;;;;4993917;28;20030;-72
2021/12/21 02:53:26;;;;;;;12.70;8.05;;;5.80;99.90;;;;;;4993884;28;20406;-72
2021/12/21 02:55:51;;;;;;;13.80;8.40;;;5.80;99.90;;;;;;4992474;28;20106;-72
2021/12/21 02:58:17;;;;;;;13.60;8.07;;;5.90;99.90;;;;;;4993679;28;20054;-73
2021/12/21 03:00:43;;;;;;;11.75;7.82;;;5.90;99.90;;;;;;4993102;28;20525;-72
2021/12/21 03:03:13;;;;;;;12.50;7.95;;;5.90;99.90;;;;;;4994023;28;20030;-73
2021/12/21 03:05:54;;;;;;;15.45;8.32;;;5.90;99.90;;;;;;4994270;28;20042;-73
2021/12/21 03:08:34;;;;;;;23.15;8.05;;;5.80;99.90;;;;;;4994482;28;20364;-73
2021/12/21 03:11:21;;;;;;;12.60;7.22;;;5.80;99.90;;;;;;4993738;28;20101;-72
2021/12/21 03:14:05;;;;;;;15.82;8.90;;;5.80;99.90;;;;;;4992335;28;20032;-72
2021/12/21 03:16:35;;;;;;;13.85;7.72;;;5.80;99.90;;;;;;4993587;28;20029;-72
2021/12/21 03:19:03;;;;;;;15.50;8.30;;;5.80;99.90;;;;;;4993454;28;20038;-72
2021/12/21 03:21:29;;;;;;;11.77;7.88;;;5.80;99.90;;;;;;4981659;28;20027;-72
2021/12/21 03:23:55;;;;;;;15.50;8.80;;;5.80;99.90;;;;;;4974175;28;20365;-73
2021/12/21 03:26:21;;;;;;;17.63;8.05;;;5.80;99.90;;;;;;4991829;28;20019;-73
2021/12/21 03:28:47;;;;;;;11.55;7.45;;;5.80;99.90;;;;;;4974112;28;20114;-72
2021/12/21 03:31:12;;;;;;;14.82;8.73;;;5.80;99.90;;;;;;4973055;28;20077;-73
2021/12/21 03:33:38;;;;;;;10.80;7.50;;;5.80;99.90;;;;;;4974264;28;20043;-74
2021/12/21 03:36:05;;;;;;;14.25;7.72;;;5.80;99.90;;;;;;4974093;28;20030;-73
2021/12/21 03:38:32;;;;;;;12.50;7.95;;;5.80;99.90;;;;;;4974713;28;20038;-74
2021/12/21 03:41:09;;;;;;;18.63;8.77;;;5.80;99.90;;;;;;4973849;28;20033;-72
2021/12/21 03:43:35;;;;;;;14.48;8.15;;;5.80;99.90;;;;;;4973539;28;20073;-73
2021/12/21 03:46:18;;;;;;;13.38;8.02;;;5.80;99.90;;;;;;4973926;28;20486;-73
2021/12/21 03:48:46;;;;;;;13.18;7.60;;;5.80;99.90;;;;;;4973849;28;20038;-72
2021/12/21 03:51:15;;;;;;;14.13;8.65;;;5.80;99.90;;;;;;4973754;28;20058;-73
2021/12/21 03:53:41;;;;;;;12.27;8.18;;;5.90;99.90;;;;;;4973987;28;20110;-73
2021/12/21 03:58:53;;;;;;;11.00;7.95;;;5.80;99.90;;;;;;4973882;28;20081;-73
2021/12/21 04:01:18;;;;;;;13.73;7.82;;;5.80;99.90;;;;;;4973655;28;20349;-73
2021/12/21 04:03:44;;;;;;;13.60;8.40;;;5.80;99.90;;;;;;4972980;28;20054;-73
2021/12/21 04:06:11;;;;;;;13.00;8.00;;;5.90;99.90;;;;;;4973220;28;20516;-73
2021/12/21 04:08:37;;;;;;;16.25;8.63;;;5.90;99.90;;;;;;4975319;28;20066;-73
2021/12/21 04:11:03;;;;;;;12.90;8.30;;;5.90;99.90;;;;;;4977543;28;20071;-72
2021/12/21 04:13:30;;;;;;;15.32;9.23;;;5.90;99.90;;;;;;4977609;28;20027;-73
2021/12/21 04:15:59;;;;;;;13.75;8.48;;;5.90;99.90;;;;;;4977552;28;20015;-72
2021/12/21 04:18:25;;;;;;;13.57;8.25;;;5.90;99.90;;;;;;4977417;28;20039;-73
2021/12/21 04:20:51;;;;;;;11.98;8.30;;;5.90;99.90;;;;;;4977300;28;20034;-74
2021/12/21 04:23:18;;;;;;;12.25;8.07;;;5.90;99.90;;;;;;4977102;28;20058;-73
2021/12/21 04:25:44;;;;;;;14.30;8.43;;;5.90;99.90;;;;;;4978029;28;20193;-73
2021/12/21 04:28:10;;;;;;;11.32;8.20;;;5.90;99.90;;;;;;4996293;28;20073;-73
2021/12/21 04:30:36;;;;;;;15.15;8.50;;;5.90;99.90;;;;;;4977655;28;20058;-73
2021/12/21 04:33:02;;;;;;;14.80;9.38;;;5.90;99.90;;;;;;4977243;28;20105;-73
2021/12/21 04:35:28;;;;;;;18.52;8.60;;;5.90;99.90;;;;;;4976095;28;20026;-73
2021/12/21 04:38:13;;;;;;;15.40;8.15;;;5.90;99.90;;;;;;4977136;28;20042;-73
2021/12/21 04:40:43;;;;;;;15.55;9.13;;;5.90;99.90;;;;;;4977111;28;20196;-74
2021/12/21 04:43:08;;;;;;;14.27;9.10;;;6.00;99.90;;;;;;4976919;28;20027;-73
2021/12/21 04:45:34;;;;;;;11.93;8.15;;;6.00;99.90;;;;;;4976920;28;20093;-73
2021/12/21 04:48:00;;;;;;;14.00;9.45;;;5.90;99.90;;;;;;4976816;28;20035;-72
2021/12/21 04:50:26;;;;;;;14.52;8.75;;;5.90;99.90;;;;;;4977246;28;20025;-73
2021/12/21 04:52:52;;;;;;;12.45;8.45;;;5.90;99.90;;;;;;4976799;28;20082;-73
2021/12/21 04:55:17;;;;;;;16.50;9.43;;;5.90;99.90;;;;;;4976722;28;20026;-73
2021/12/21 04:57:43;;;;;;;12.93;8.45;;;5.90;99.90;;;;;;4976732;28;20043;-74
2021/12/21 05:00:12;;;;;;;16.95;9.43;;;5.90;99.90;;;;;;4976358;28;20046;-72
2021/12/21 05:02:38;;;;;;;16.70;8.40;;;5.90;99.90;;;;;;4976302;28;20494;-73
2021/12/21 05:05:04;;;;;;;16.98;9.20;;;5.90;99.90;;;;;;4976520;28;20027;-73
2021/12/21 05:07:32;;;;;;;15.85;9.73;;;5.90;99.90;;;;;;4976782;28;20042;-73
2021/12/21 05:10:01;;;;;;;14.50;8.68;;;5.80;99.90;;;;;;4974957;28;20034;-72
2021/12/21 05:12:27;;;;;;;14.43;9.13;;;5.90;99.90;;;;;;4974815;28;20031;-73
2021/12/21 05:14:54;;;;;;;15.88;9.05;;;5.90;99.90;;;;;;4974897;28;20026;-72
2021/12/21 05:17:20;;;;;;;16.27;8.20;;;5.90;99.90;;;;;;4975958;28;20038;-72
2021/12/21 05:19:46;;;;;;;13.35;8.13;;;5.90;99.90;;;;;;4975056;28;20031;-73
2021/12/21 05:22:12;;;;;;;15.23;9.40;;;5.90;99.90;;;;;;4974898;28;20026;-72
2021/12/21 05:24:39;;;;;;;17.65;8.95;;;5.90;99.90;;;;;;4974922;28;20031;-73
2021/12/21 05:27:05;;;;;;;14.95;8.52;;;5.90;99.90;;;;;;4992823;28;20033;-72
2021/12/21 05:29:31;;;;;;;12.75;8.68;;;5.90;99.90;;;;;;4994532;28;20117;-73
2021/12/21 05:32:01;;;;;;;17.63;9.15;;;5.90;99.90;;;;;;4995619;28;20118;-73
2021/12/21 05:34:28;;;;;;;16.48;8.35;;;5.90;99.90;;;;;;4995696;28;20036;-72
2021/12/21 05:36:54;;;;;;;13.57;8.57;;;5.90;99.90;;;;;;4995325;28;20487;-73
2021/12/21 05:39:24;;;;;;;15.50;8.48;;;5.90;99.90;;;;;;4994656;28;20383;-73
2021/12/21 05:41:55;;;;;;;12.07;8.48;;;5.90;99.90;;;;;;4995828;28;20014;-73
2021/12/21 05:44:25;;;;;;;17.83;10.07;;;5.90;99.90;;;;;;4995774;28;20029;-72
2021/12/21 05:46:52;;;;;;;22.15;8.90;;;5.90;99.90;;;;;;4995423;28;20033;-72
2021/12/21 05:49:18;;;;;;;15.00;8.65;;;5.90;99.90;;;;;;4995468;28;20074;-72
2021/12/21 05:51:45;;;;;;;13.32;7.57;;;5.90;99.90;;;;;;4994625;28;20030;-72
2021/12/21 05:54:12;;;;;;;17.42;9.07;;;5.90;99.90;;;;;;4995239;28;20023;-72
2021/12/21 05:56:37;;;;;;;18.27;9.25;;;5.90;99.90;;;;;;4981469;28;20495;-72
2021/12/21 05:59:03;;;;;;;14.32;8.70;;;5.80;99.90;;;;;;4975818;28;20077;-73
2021/12/21 06:01:31;;;;;;;12.80;8.13;;;5.90;99.90;;;;;;4975221;28;20026;-73
2021/12/21 06:03:57;;;;;;;17.67;9.23;;;5.90;99.90;;;;;;4974037;28;20035;-74
2021/12/21 06:06:23;;;;;;;17.02;8.80;;;5.90;99.90;;;;;;4975184;28;20138;-72
2021/12/21 06:08:51;;;;;;;14.05;8.52;;;5.90;99.90;;;;;;4975470;28;20058;-73
2021/12/21 06:11:16;;;;;;;18.30;8.68;;;5.90;99.90;;;;;;4974099;28;20041;-72
2021/12/21 06:26:46;;;;;;;18.73;10.07;;;5.90;99.90;;;;;;4990092;28;20418;-72
2021/12/21 06:29:12;;;;;;;15.13;9.23;;;5.90;99.90;;;;;;4988719;28;20080;-73
2021/12/21 06:31:39;;;;;;;18.80;9.57;;;5.80;99.90;;;;;;4995579;28;20531;-73
2021/12/21 06:34:05;;;;;;;14.35;9.25;;;5.80;99.90;;;;;;4996510;28;20054;-72
2021/12/21 06:36:32;;;;;;;17.63;9.48;;;5.80;99.90;;;;;;4996694;28;20022;-73
2021/12/21 06:38:58;;;;;;;13.77;9.05;;;5.80;99.90;;;;;;4995410;28;20149;-73
2021/12/21 06:41:24;;;;;;;12.45;8.68;;;5.80;99.90;;;;;;4995507;28;20023;-73
2021/12/21 06:43:50;;;;;;;20.90;9.20;;;5.80;99.90;;;;;;4996958;28;20022;-73
2021/12/21 06:51:50;;;;;;;15.38;9.38;;;5.80;99.90;;;;;;4977243;28;20114;-73
2021/12/21 06:54:16;;;;;;;15.68;9.40;;;5.80;99.90;;;;;;4974340;28;20054;-74
2021/12/21 06:56:41;;;;;;;14.18;9.60;;;5.80;99.90;;;;;;4975200;28;20070;-73
2021/12/21 06:59:07;;;;;;;14.23;9.07;;;5.80;99.90;;;;;;4975371;28;20154;-73
2021/12/21 07:01:36;;;;;;;18.77;8.95;;;5.90;99.90;;;;;;4974538;28;20034;-72
2021/12/21 07:04:02;;;;;;;17.15;9.55;;;5.90;99.90;;;;;;4988612;28;20034;-73
2021/12/21 07:06:28;;;;;;;16.45;9.38;;;5.90;99.90;;;;;;4994999;28;20510;-73
2021/12/21 07:09:04;;;;;;;19.13;8.77;;;5.90;99.90;;;;;;4995827;28;20517;-73
2021/12/21 07:11:43;;;;;;;18.02;9.73;;;5.90;99.90;;;;;;4979283;28;20027;-72
2021/12/21 07:19:52;;;;;;;15.23;8.80;;;5.90;99.90;;;;;;5003564;28;20068;-75
2021/12/21 07:22:21;;;;;;;19.05;9.77;;;5.90;99.90;;;;;;5005939;28;20023;-75
2021/12/21 07:24:58;;;;;;;16.25;9.07;;;5.90;99.90;;;;;;4999478;28;20117;-75
2021/12/21 07:27:37;;;;;;;27.05;8.98;;;5.90;99.90;;;;;;4980937;28;20145;-76
2021/12/21 07:30:04;;;;;;;16.23;8.48;;;5.90;99.90;;;;;;4996927;28;20026;-76
2021/12/21 07:32:30;;;;;;;17.13;8.85;;;6.00;99.90;;;;;;4991330;28;20026;-76
2021/12/21 07:34:56;;;;;;;25.15;9.65;;;6.00;99.90;;;;;;4993430;28;20026;-76
2021/12/21 07:37:21;;;;;;;15.15;9.00;;;6.00;99.90;;;;;;4992657;28;20022;-77
2021/12/21 07:39:47;;;;;;;14.98;8.95;;;6.00;99.90;;;;;;4991260;28;20394;-78
2021/12/21 07:42:12;;;;;;;17.55;9.50;;;6.10;99.90;;;;;;4992461;28;20026;-77
2021/12/21 07:44:38;;;;;;;16.65;9.65;;;6.10;99.90;;;;;;4990864;28;20050;-76
2021/12/21 07:47:04;;;;;;;13.82;8.68;;;6.10;99.90;;;;;;4992652;28;20022;-76
2021/12/21 07:49:30;;;;;;;14.18;8.80;;;6.10;99.90;;;;;;4992595;28;20023;-77
2021/12/21 07:51:56;;;;;;;16.55;9.43;;;6.20;99.90;;;;;;4992303;28;20014;-76
2021/12/21 07:54:22;;;;;;;15.30;9.32;;;6.20;99.90;;;;;;4992193;28;20022;-76
2021/12/21 07:56:48;;;;;;;28.25;10.43;;;6.20;99.90;;;;;;4990483;28;20025;-77
2021/12/21 07:59:14;;;;;;;15.93;9.05;;;6.20;99.90;;;;;;4990048;28;20026;-76
2021/12/21 08:01:40;;;;;;;18.88;8.63;;;6.20;99.90;;;;;;4988200;28;20026;-76
2021/12/21 08:04:09;;;;;;;20.08;9.50;;;6.30;99.90;;;;;;4990242;28;20104;-76
2021/12/21 08:06:36;;;;;;;13.45;8.52;;;6.20;99.90;;;;;;4991186;28;20483;-76
2021/12/21 08:09:04;;;;;;;14.68;8.73;;;6.20;99.90;;;;;;4991690;28;20033;-74
2021/12/21 08:14:00;;;;;;;14.63;9.48;;;6.20;99.90;;;;;;4992003;28;20041;-75
2021/12/21 08:16:26;;;;;;;17.02;9.52;;;6.20;99.90;;;;;;4991565;28;20153;-76
2021/12/21 08:18:52;;;;;;;13.85;8.73;;;6.20;99.90;;;;;;4991938;28;20038;-76
2021/12/21 08:21:18;;;;;;;19.95;9.63;;;6.20;99.90;;;;;;4991902;28;20025;-76
2021/12/21 08:23:45;;;;;;;13.95;8.73;;;6.20;99.90;;;;;;4992148;28;20101;-77
2021/12/21 08:26:11;;;;;;;12.38;8.32;;;6.20;99.90;;;;;;4990541;28;20034;-77
2021/12/21 08:28:37;;;;;;;15.57;9.00;;;6.20;99.90;;;;;;4992394;28;20375;-76
2021/12/21 08:31:03;;;;;;;13.25;8.48;;;6.30;99.90;;;;;;4988229;28;20037;-76
2021/12/21 08:33:28;;;;;;;17.92;9.10;;;6.30;99.90;;;;;;4975361;28;20468;-74
2021/12/21 08:35:54;;;;;;;15.82;9.10;;;6.40;99.90;;;;;;4972022;28;20050;-75
2021/12/21 08:38:20;;;;;;;13.15;8.55;;;6.40;99.90;;;;;;4971848;28;20122;-75
2021/12/21 08:40:49;;;;;;;18.15;9.20;;;6.40;99.90;;;;;;4971180;28;20117;-75
2021/12/21 08:43:24;;;;;;;13.65;7.88;;;6.40;99.90;;;;;;4972655;28;20031;-74
2021/12/21 08:45:52;;;;;;;15.93;8.43;;;6.40;99.90;;;;;;4972252;28;20035;-74
2021/12/21 08:48:18;;;;;;;13.13;8.82;;;6.40;99.90;;;;;;4977301;28;20499;-76
2021/12/21 08:50:45;;;;;;;33.83;10.05;;;6.40;99.90;;;;;;4991780;28;20026;-77
2021/12/21 08:53:13;;;;;;;12.02;8.02;;;6.50;99.90;;;;;;4991995;28;20042;-75
2021/12/21 08:55:40;;;;;;;16.33;9.07;;;6.40;99.90;;;;;;4991360;28;20081;-75
2021/12/21 08:58:07;;;;;;;14.20;9.48;;;6.50;99.90;;;;;;4995533;28;20153;-75
2021/12/21 09:00:33;;;;;;;18.85;9.73;;;6.50;99.90;;;;;;4993194;28;20022;-75
2021/12/21 09:02:58;;;;;;;15.55;8.98;;;6.50;99.90;;;;;;4993621;28;20023;-76
2021/12/21 09:05:27;;;;;;;15.40;8.75;;;6.50;99.90;;;;;;4995348;28;20560;-74
2021/12/21 09:07:54;;;;;;;20.92;8.95;;;6.60;99.90;;;;;;4994919;28;20117;-75
2021/12/21 09:10:22;;;;;;;15.60;9.45;;;6.60;99.90;;;;;;4995528;28;20026;-75
2021/12/21 09:12:48;;;;;;;19.63;8.93;;;6.60;99.90;;;;;;4995839;28;20022;-75
2021/12/21 09:15:16;;;;;;;15.85;9.23;;;6.60;99.90;;;;;;4994969;28;20033;-74
2021/12/21 09:17:44;;;;;;;22.05;9.43;;;6.60;99.90;;;;;;4990791;28;20069;-75
2021/12/21 09:20:13;;;;;;;13.55;8.80;;;6.70;99.90;;;;;;4975388;28;20030;-77
2021/12/21 09:22:39;;;;;;;14.48;8.02;;;6.70;99.90;;;;;;4993638;28;20030;-76
2021/12/21 09:25:06;;;;;;;17.40;8.65;;;6.70;99.90;;;;;;4993617;28;20026;-74
2021/12/21 09:27:32;;;;;;;11.10;7.78;;;6.70;99.90;;;;;;4993798;28;20026;-74
2021/12/21 09:29:58;;;;;;;13.18;8.43;;;6.70;99.90;;;;;;4994882;28;20037;-74
2021/12/21 09:32:25;;;;;;;14.18;8.02;;;6.70;99.90;;;;;;4992482;28;20531;-74
2021/12/21 09:34:51;;;;;;;12.98;7.60;;;6.70;99.90;;;;;;4992739;28;20030;-75
2021/12/21 09:37:20;;;;;;;12.30;7.60;;;6.70;99.90;;;;;;4993791;28;20041;-74
2021/12/21 09:39:48;;;;;;;14.88;8.13;;;6.80;99.90;;;;;;4993743;28;20038;-74
2021/12/21 09:42:17;;;;;;;17.88;9.20;;;6.80;99.90;;;;;;4994513;28;20026;-75
2021/12/21 09:44:43;;;;;;;18.13;7.30;;;6.80;99.90;;;;;;4982662;28;20034;-75
2021/12/21 09:47:10;;;;;;;13.18;8.27;;;6.90;99.90;;;;;;4992454;28;20434;-76
2021/12/21 09:49:37;;;;;;;17.92;9.23;;;6.90;99.90;;;;;;4994220;28;20057;-75
2021/12/21 09:52:05;;;;;;;12.00;7.40;;;6.90;99.90;;;;;;4993483;28;20026;-77
2021/12/21 09:54:33;;;;;;;13.07;7.53;;;6.90;99.90;;;;;;4992870;28;20121;-76
2021/12/21 09:56:59;;;;;;;16.00;7.63;;;6.90;99.90;;;;;;4990426;28;20035;-76
2021/12/21 09:59:26;;;;;;;14.63;8.45;;;6.90;99.90;;;;;;4993910;28;20041;-76
2021/12/21 10:01:52;;;;;;;13.70;8.07;;;6.90;99.90;;;;;;4994949;28;20023;-77
2021/12/21 10:04:18;;;;;;;18.58;8.35;;;6.80;99.90;;;;;;4995497;28;20023;-76
2021/12/21 10:06:49;;;;;;;14.57;7.57;;;6.80;99.90;;;;;;4994603;28;20481;-76
2021/12/21 10:09:19;;;;;;;21.38;7.80;;;6.90;99.90;;;;;;4993584;28;20093;-76
2021/12/21 10:11:50;;;;;;;11.85;7.88;;;6.90;99.90;;;;;;4991049;28;20395;-76
2021/12/21 10:14:17;;;;;;;13.20;7.53;;;7.00;99.90;;;;;;4994316;28;20109;-75
2021/12/21 10:16:45;;;;;;;14.35;7.18;;;7.00;99.90;;;;;;4994547;28;20690;-75
2021/12/21 10:19:24;;;;;;;12.68;6.45;;;7.00;99.90;;;;;;4993062;28;20046;-76
2021/12/21 10:21:50;;;;;;;12.80;7.00;;;7.10;99.90;;;;;;4989783;28;20487;-76
2021/12/21 10:24:24;;;;;;;17.52;6.95;;;7.10;99.90;;;;;;4991781;28;20033;-74
2021/12/21 10:27:11;;;;;;;13.43;7.07;;;7.20;99.90;;;;;;4987665;28;20480;-75
2021/12/21 10:29:45;;;;;;;13.45;7.18;;;7.20;99.90;;;;;;4991500;28;20042;-75
2021/12/21 10:32:26;;;;;;;12.07;7.07;;;7.30;99.90;;;;;;4992771;28;20045;-74
2021/12/21 10:34:53;;;;;;;14.63;6.50;;;7.30;99.90;;;;;;4991978;28;20030;-75
2021/12/21 10:37:26;;;;;;;18.88;7.65;;;7.20;99.90;;;;;;4993543;28;20084;-75
2021/12/21 10:40:23;;;;;;;17.15;7.32;;;7.20;99.90;;;;;;4995878;28;20030;-75
2021/12/21 10:42:51;;;;;;;21.73;11.82;;;7.10;99.90;;;;;;4994597;28;20022;-74
2021/12/21 10:45:22;;;;;;;38.65;19.73;;;7.10;99.90;;;;;;4992610;28;20027;-75
2021/12/21 10:47:49;;;;;;;20.90;9.95;;;7.10;99.90;;;;;;4992552;28;20052;-74
2021/12/21 10:50:15;;;;;;;22.05;13.43;;;7.00;99.90;;;;;;4993805;28;20023;-75
2021/12/21 10:52:46;;;;;;;14.60;8.98;;;7.10;99.90;;;;;;4994703;28;20049;-75
2021/12/21 10:55:12;;;;;;;12.85;8.23;;;7.10;99.90;;;;;;4991664;28;20019;-75
2021/12/21 10:57:38;;;;;;;20.77;10.48;;;7.20;99.90;;;;;;4993859;28;20096;-75
2021/12/21 11:00:14;;;;;;;24.02;10.32;;;7.20;99.90;;;;;;4994311;28;20022;-75
2021/12/21 11:02:41;;;;;;;22.55;8.20;;;7.30;99.90;;;;;;4994635;28;20022;-75
2021/12/21 11:05:11;;;;;;;15.82;8.50;;;7.30;99.90;;;;;;4994197;28;20050;-75
2021/12/21 11:07:44;;;;;;;16.90;9.10;;;7.30;99.90;;;;;;4994989;28;20054;-75
2021/12/21 11:10:15;;;;;;;20.85;10.82;;;7.30;99.90;;;;;;4994639;28;20018;-75
2021/12/21 11:12:45;;;;;;;20.77;9.95;;;7.30;99.90;;;;;;4993135;28;20411;-75
2021/12/21 11:15:13;;;;;;;15.85;9.90;;;7.20;99.90;;;;;;4994872;28;20054;-75
2021/12/21 11:17:40;;;;;;;21.00;9.65;;;7.20;99.90;;;;;;4993850;28;20034;-75
2021/12/21 11:20:07;;;;;;;17.52;9.55;;;7.10;99.90;;;;;;4994146;28;20481;-74
2021/12/21 11:22:34;;;;;;;15.50;9.68;;;7.10;99.90;;;;;;4994173;28;20382;-75
2021/12/21 11:25:01;;;;;;;19.92;11.35;;;7.10;99.90;;;;;;4992748;28;20451;-74
2021/12/21 11:27:29;;;;;;;17.98;8.68;;;7.00;99.90;;;;;;4989705;28;20085;-75
2021/12/21 11:29:59;;;;;;;18.00;8.43;;;7.10;99.90;;;;;;4974225;28;20034;-75
2021/12/21 11:32:29;;;;;;;10.90;6.50;;;7.00;99.90;;;;;;4974381;28;20494;-75
2021/12/21 11:37:59;;;;;;;8.90;4.88;;;7.20;99.90;;;;;;4973068;28;20097;-75
2021/12/21 11:40:34;;;;;;;20.00;8.75;;;7.10;99.90;;;;;;4974558;28;20027;-75
2021/12/21 11:43:10;;;;;;;9.25;5.70;;;7.10;99.90;;;;;;4973791;28;20137;-75
2021/12/21 11:45:41;;;;;;;8.57;5.10;;;7.20;99.90;;;;;;4973849;28;20107;-75
2021/12/21 11:48:09;;;;;;;10.23;5.63;;;7.20;99.90;;;;;;4974179;28;20109;-75
2021/12/21 11:50:37;;;;;;;9.30;6.32;;;7.20;99.90;;;;;;4985397;28;20059;-75
2021/12/21 11:53:07;;;;;;;10.00;4.93;;;7.20;99.90;;;;;;4993535;28;20030;-75
2021/12/21 11:55:39;;;;;;;16.45;5.40;;;7.20;99.90;;;;;;4991095;28;20030;-75
2021/12/21 11:58:26;;;;;;;17.45;6.15;;;7.10;99.90;;;;;;4992658;28;20030;-75
2021/12/21 12:00:58;;;;;;;10.85;5.60;;;7.10;99.90;;;;;;4993005;28;20022;-75
2021/12/21 12:03:27;;;;;;;7.90;5.10;;;7.00;99.90;;;;;;4992644;28;20019;-75
2021/12/21 12:06:07;;;;;;;12.05;5.22;;;6.80;99.90;;;;;;4992439;28;20141;-75
2021/12/21 12:08:52;;;;;;;15.48;5.88;;;6.70;99.90;;;;;;4992134;28;20022;-75
2021/12/21 12:11:35;;;;;;;12.73;6.03;;;6.60;99.90;;;;;;4992516;28;20022;-76
2021/12/21 12:14:06;;;;;;;12.38;6.47;;;6.60;99.90;;;;;;4992315;28;20651;-74
2021/12/21 12:16:53;;;;;;;15.98;6.20;;;6.50;99.90;;;;;;4992570;28;20068;-74
2021/12/21 12:19:38;;;;;;;12.52;7.20;;;6.40;99.90;;;;;;4989994;28;20506;-74
2021/12/21 12:22:09;;;;;;;28.02;16.88;;;6.40;99.90;;;;;;4991135;28;20030;-75
2021/12/21 12:24:41;;;;;;;13.13;8.32;;;6.40;99.90;;;;;;4992297;28;20018;-75
2021/12/21 12:27:20;;;;;;;;;;;6.30;99.90;;;;;;4992591;28;20080;-75
2021/12/21 12:29:52;;;;;;;16.67;9.63;;;6.10;99.90;;;;;;4994482;28;20281;-74
2021/12/21 12:32:37;;;;;;;21.48;13.18;;;6.10;99.90;;;;;;4993355;28;20475;-74
2021/12/21 12:35:09;;;;;;;26.75;17.52;;;5.90;99.90;;;;;;4995991;28;20459;-74
2021/12/21 12:37:48;;;;;;;;;;;5.80;99.90;;;;;;4996408;28;20030;-75
2021/12/21 12:40:15;;;;;;;24.20;11.13;;;5.80;99.90;;;;;;4996091;28;20355;-74
2021/12/21 12:42:41;;;;;;;19.67;11.48;;;5.80;99.90;;;;;;4996057;28;20019;-74
2021/12/21 12:45:20;;;;;;;35.08;17.63;;;5.70;99.90;;;;;;4996107;28;20027;-74
2021/12/21 12:47:55;;;;;;;23.80;12.48;;;5.60;99.90;;;;;;4995618;28;20456;-76
2021/12/21 12:50:28;;;;;;;26.83;14.55;;;5.50;99.90;;;;;;4996546;28;20026;-74
2021/12/21 12:53:03;;;;;;;37.42;17.77;;;5.50;99.90;;;;;;4996219;28;20068;-75
2021/12/21 12:55:53;;;;;;;27.73;16.88;;;5.40;99.90;;;;;;4991786;28;20085;-75
2021/12/21 12:58:25;;;;;;;21.10;12.02;;;5.40;99.90;;;;;;4976118;28;20163;-75
2021/12/21 13:01:18;;;;;;;30.52;15.77;;;5.40;99.90;;;;;;4976041;28;20031;-74
2021/12/21 13:03:43;;;;;;;25.85;14.20;;;5.30;99.90;;;;;;4989865;28;20026;-75
2021/12/21 13:06:15;;;;;;;31.63;17.05;;;5.20;99.90;;;;;;4994496;28;20514;-74
2021/12/21 13:08:42;;;;;;;39.92;19.13;;;5.30;99.90;;;;;;4994629;28;20058;-73
2021/12/21 13:11:09;;;;;;;42.22;22.27;;;5.20;99.90;;;;;;4992556;28;20027;-75
2021/12/21 13:13:36;;;;;;;30.27;16.17;;;5.20;99.90;;;;;;4990661;28;20022;-74
2021/12/21 13:16:17;;;;;;;36.42;18.13;;;5.20;99.90;;;;;;4993984;28;20029;-74
2021/12/21 13:18:56;;;;;;;24.38;13.52;;;5.20;99.90;;;;;;4994646;28;20479;-75
2021/12/21 13:21:21;;;;;;;27.08;14.13;;;5.20;99.90;;;;;;4992342;28;20379;-74
2021/12/21 13:23:50;;;;;;;34.67;16.42;;;5.20;99.90;;;;;;4996490;28;20038;-73
2021/12/21 13:26:19;;;;;;;21.17;12.40;;;5.20;99.90;;;;;;4993845;28;20026;-74
2021/12/21 13:28:52;;;;;;;59.00;26.75;;;5.20;99.90;;;;;;4979994;28;20102;-72
2021/12/21 13:31:21;;;;;;;49.22;24.30;;;5.20;99.90;;;;;;4975085;28;20023;-73
2021/12/21 13:33:52;;;;;;;24.88;14.80;;;5.20;99.90;;;;;;4979928;28;20072;-74
2021/12/21 13:36:18;;;;;;;38.42;19.48;;;5.20;99.90;;;;;;4995425;28;20113;-74
2021/12/21 13:38:44;;;;;;;77.38;35.33;;;5.20;99.90;;;;;;4994538;28;20129;-74
2021/12/21 13:41:16;;;;;;;49.78;26.80;;;5.20;99.90;;;;;;4992808;28;20025;-73
2021/12/21 13:43:59;;;;;;;25.85;17.08;;;5.30;99.90;;;;;;4993526;28;20427;-74
2021/12/21 13:46:32;;;;;;;34.80;20.45;;;5.30;99.90;;;;;;4992624;28;20077;-74
2021/12/21 13:48:58;;;;;;;21.88;11.60;;;5.30;99.90;;;;;;4991609;28;20061;-74
2021/12/21 13:51:25;;;;;;;21.20;12.50;;;5.40;99.90;;;;;;4993841;28;20033;-75
2021/12/21 13:53:52;;;;;;;24.38;13.75;;;5.40;99.90;;;;;;4993984;28;20385;-78
2021/12/21 13:56:23;;;;;;;20.48;11.70;;;5.30;99.90;;;;;;4993384;28;20049;-75
2021/12/21 13:58:54;;;;;;;21.08;12.00;;;5.30;99.90;;;;;;4994008;28;20073;-75